sensor_id;sensor_type;location;lat;lon;timestamp;P1;durP1;ratioP1;P2;durP2;ratioP2
31390;SDS011;18022;45.492;11.548;2022-09-01T00:02:22;5.53;;;3.30;;
31390;SDS011;18022;45.492;11.548;2022-09-01T00:04:51;5.75;;;3.97;;
31390;SDS011;18022;45.492;11.548;2022-09-01T00:07:22;5.43;;;3.80;;
31390;SDS011;18022;45.492;11.548;2022-09-01T00:09:49;8.15;;;4.20;;
31390;SDS011;18022;45.492;11.548;2022-09-01T00:12:15;5.18;;;3.70;;
31390;SDS011;18022;45.492;11.548;2022-09-01T00:14:42;8.57;;;3.85;;
31390;SDS011;18022;45.492;11.548;2022-09-01T00:17:09;6.65;;;3.88;;
31390;SDS011;18022;45.492;11.548;2022-09-01T00:19:36;8.77;;;3.53;;
31390;SDS011;18022;45.492;11.548;2022-09-01T00:24:29;7.65;;;3.90;;
31390;SDS011;18022;45.492;11.548;2022-09-01T00:26:55;5.88;;;3.88;;
31390;SDS011;18022;45.492;11.548;2022-09-01T00:29:21;7.13;;;3.38;;
31390;SDS011;18022;45.492;11.548;2022-09-01T00:31:48;6.82;;;3.42;;
31390;SDS011;18022;45.492;11.548;2022-09-01T00:34:15;8.10;;;3.78;;
31390;SDS011;18022;45.492;11.548;2022-09-01T00:36:41;8.40;;;3.20;;
31390;SDS011;18022;45.492;11.548;2022-09-01T00:39:07;5.10;;;3.35;;
31390;SDS011;18022;45.492;11.548;2022-09-01T00:41:35;12.57;;;4.30;;
31390;SDS011;18022;45.492;11.548;2022-09-01T00:44:04;8.18;;;3.42;;
31390;SDS011;18022;45.492;11.548;2022-09-01T00:46:34;4.07;;;3.67;;
31390;SDS011;18022;45.492;11.548;2022-09-01T00:49:03;5.90;;;3.47;;
31390;SDS011;18022;45.492;11.548;2022-09-01T00:51:32;10.05;;;3.50;;
31390;SDS011;18022;45.492;11.548;2022-09-01T00:54:01;11.00;;;3.70;;
31390;SDS011;18022;45.492;11.548;2022-09-01T00:56:27;9.77;;;3.53;;
31390;SDS011;18022;45.492;11.548;2022-09-01T00:58:55;4.55;;;3.53;;
31390;SDS011;18022;45.492;11.548;2022-09-01T01:01:21;4.10;;;3.70;;
31390;SDS011;18022;45.492;11.548;2022-09-01T01:03:47;5.30;;;3.80;;
31390;SDS011;18022;45.492;11.548;2022-09-01T01:06:14;7.70;;;3.88;;
31390;SDS011;18022;45.492;11.548;2022-09-01T01:08:42;8.80;;;4.05;;
31390;SDS011;18022;45.492;11.548;2022-09-01T01:11:16;6.18;;;4.00;;
31390;SDS011;18022;45.492;11.548;2022-09-01T01:13:55;7.45;;;3.33;;
31390;SDS011;18022;45.492;11.548;2022-09-01T01:16:36;7.15;;;3.47;;
31390;SDS011;18022;45.492;11.548;2022-09-01T01:19:06;9.82;;;3.60;;
31390;SDS011;18022;45.492;11.548;2022-09-01T01:21:53;6.20;;;3.40;;
31390;SDS011;18022;45.492;11.548;2022-09-01T01:24:38;9.93;;;3.55;;
31390;SDS011;18022;45.492;11.548;2022-09-01T01:27:03;8.15;;;4.10;;
31390;SDS011;18022;45.492;11.548;2022-09-01T01:29:32;9.52;;;3.65;;
31390;SDS011;18022;45.492;11.548;2022-09-01T01:32:02;11.32;;;3.30;;
31390;SDS011;18022;45.492;11.548;2022-09-01T01:34:29;4.63;;;3.42;;
31390;SDS011;18022;45.492;11.548;2022-09-01T01:36:55;5.93;;;3.78;;
31390;SDS011;18022;45.492;11.548;2022-09-01T01:39:23;6.63;;;3.80;;
31390;SDS011;18022;45.492;11.548;2022-09-01T01:41:50;8.10;;;3.67;;
31390;SDS011;18022;45.492;11.548;2022-09-01T01:44:18;6.63;;;3.65;;
31390;SDS011;18022;45.492;11.548;2022-09-01T01:46:48;5.10;;;3.25;;
31390;SDS011;18022;45.492;11.548;2022-09-01T01:49:15;9.02;;;3.63;;
31390;SDS011;18022;45.492;11.548;2022-09-01T01:51:45;5.43;;;3.30;;
31390;SDS011;18022;45.492;11.548;2022-09-01T01:56:40;6.35;;;3.20;;
31390;SDS011;18022;45.492;11.548;2022-09-01T01:59:06;5.40;;;3.20;;
31390;SDS011;18022;45.492;11.548;2022-09-01T02:01:39;9.20;;;3.45;;
31390;SDS011;18022;45.492;11.548;2022-09-01T02:04:07;7.05;;;3.10;;
31390;SDS011;18022;45.492;11.548;2022-09-01T02:06:35;7.03;;;3.10;;
31390;SDS011;18022;45.492;11.548;2022-09-01T02:09:04;8.88;;;3.50;;
31390;SDS011;18022;45.492;11.548;2022-09-01T02:11:31;6.93;;;3.70;;
31390;SDS011;18022;45.492;11.548;2022-09-01T02:13:58;5.05;;;3.30;;
31390;SDS011;18022;45.492;11.548;2022-09-01T02:16:25;5.00;;;3.33;;
31390;SDS011;18022;45.492;11.548;2022-09-01T02:21:19;4.07;;;3.10;;
31390;SDS011;18022;45.492;11.548;2022-09-01T02:23:47;5.93;;;3.53;;
31390;SDS011;18022;45.492;11.548;2022-09-01T02:26:24;6.70;;;2.80;;
31390;SDS011;18022;45.492;11.548;2022-09-01T02:28:56;6.30;;;3.20;;
31390;SDS011;18022;45.492;11.548;2022-09-01T02:31:29;6.55;;;3.08;;
31390;SDS011;18022;45.492;11.548;2022-09-01T02:33:59;5.13;;;2.85;;
31390;SDS011;18022;45.492;11.548;2022-09-01T02:36:25;9.23;;;3.10;;
31390;SDS011;18022;45.492;11.548;2022-09-01T02:38:52;7.05;;;3.20;;
31390;SDS011;18022;45.492;11.548;2022-09-01T02:41:19;5.82;;;2.92;;
31390;SDS011;18022;45.492;11.548;2022-09-01T02:43:49;6.05;;;2.95;;
31390;SDS011;18022;45.492;11.548;2022-09-01T02:46:14;6.28;;;3.08;;
31390;SDS011;18022;45.492;11.548;2022-09-01T02:48:41;4.97;;;3.20;;
31390;SDS011;18022;45.492;11.548;2022-09-01T02:51:14;6.32;;;3.25;;
31390;SDS011;18022;45.492;11.548;2022-09-01T02:53:42;6.78;;;3.33;;
31390;SDS011;18022;45.492;11.548;2022-09-01T02:56:10;5.20;;;3.20;;
31390;SDS011;18022;45.492;11.548;2022-09-01T02:58:38;5.90;;;3.03;;
31390;SDS011;18022;45.492;11.548;2022-09-01T03:01:31;5.45;;;2.78;;
31390;SDS011;18022;45.492;11.548;2022-09-01T03:04:00;10.30;;;3.22;;
31390;SDS011;18022;45.492;11.548;2022-09-01T03:06:30;4.90;;;3.03;;
31390;SDS011;18022;45.492;11.548;2022-09-01T03:08:58;8.13;;;2.97;;
31390;SDS011;18022;45.492;11.548;2022-09-01T03:11:25;5.00;;;2.70;;
31390;SDS011;18022;45.492;11.548;2022-09-01T03:13:53;6.85;;;2.63;;
31390;SDS011;18022;45.492;11.548;2022-09-01T03:16:19;5.40;;;2.97;;
31390;SDS011;18022;45.492;11.548;2022-09-01T03:18:46;7.15;;;2.72;;
31390;SDS011;18022;45.492;11.548;2022-09-01T03:21:13;4.60;;;2.85;;
31390;SDS011;18022;45.492;11.548;2022-09-01T03:26:07;4.50;;;3.13;;
31390;SDS011;18022;45.492;11.548;2022-09-01T03:28:33;3.97;;;3.53;;
31390;SDS011;18022;45.492;11.548;2022-09-01T03:30:59;5.05;;;2.80;;
31390;SDS011;18022;45.492;11.548;2022-09-01T03:33:25;7.88;;;2.97;;
31390;SDS011;18022;45.492;11.548;2022-09-01T03:35:52;5.95;;;2.83;;
31390;SDS011;18022;45.492;11.548;2022-09-01T03:38:19;4.75;;;2.70;;
31390;SDS011;18022;45.492;11.548;2022-09-01T03:40:52;7.78;;;2.65;;
31390;SDS011;18022;45.492;11.548;2022-09-01T03:43:23;5.25;;;3.10;;
31390;SDS011;18022;45.492;11.548;2022-09-01T03:45:51;6.63;;;3.40;;
31390;SDS011;18022;45.492;11.548;2022-09-01T03:48:19;7.10;;;3.25;;
31390;SDS011;18022;45.492;11.548;2022-09-01T03:50:46;5.65;;;2.78;;
31390;SDS011;18022;45.492;11.548;2022-09-01T03:53:13;6.40;;;2.75;;
31390;SDS011;18022;45.492;11.548;2022-09-01T03:55:44;4.28;;;3.03;;
31390;SDS011;18022;45.492;11.548;2022-09-01T03:58:13;4.57;;;2.88;;
31390;SDS011;18022;45.492;11.548;2022-09-01T04:00:44;9.77;;;3.30;;
31390;SDS011;18022;45.492;11.548;2022-09-01T04:03:15;4.25;;;2.80;;
31390;SDS011;18022;45.492;11.548;2022-09-01T04:05:46;7.28;;;2.83;;
31390;SDS011;18022;45.492;11.548;2022-09-01T04:08:13;6.25;;;2.83;;
31390;SDS011;18022;45.492;11.548;2022-09-01T04:10:43;6.07;;;3.08;;
31390;SDS011;18022;45.492;11.548;2022-09-01T04:13:24;4.57;;;2.92;;
31390;SDS011;18022;45.492;11.548;2022-09-01T04:15:54;4.43;;;3.45;;
31390;SDS011;18022;45.492;11.548;2022-09-01T04:18:21;3.80;;;2.92;;
31390;SDS011;18022;45.492;11.548;2022-09-01T04:20:51;4.82;;;2.97;;
31390;SDS011;18022;45.492;11.548;2022-09-01T04:23:28;4.15;;;3.28;;
31390;SDS011;18022;45.492;11.548;2022-09-01T04:28:43;4.38;;;2.72;;
31390;SDS011;18022;45.492;11.548;2022-09-01T04:31:17;3.45;;;3.00;;
31390;SDS011;18022;45.492;11.548;2022-09-01T04:33:49;3.47;;;3.10;;
31390;SDS011;18022;45.492;11.548;2022-09-01T04:36:23;4.13;;;3.30;;
31390;SDS011;18022;45.492;11.548;2022-09-01T04:38:53;8.05;;;3.50;;
31390;SDS011;18022;45.492;11.548;2022-09-01T04:41:22;4.15;;;3.03;;
31390;SDS011;18022;45.492;11.548;2022-09-01T04:43:51;9.48;;;3.08;;
31390;SDS011;18022;45.492;11.548;2022-09-01T04:46:20;4.80;;;3.00;;
31390;SDS011;18022;45.492;11.548;2022-09-01T04:48:47;4.63;;;2.88;;
31390;SDS011;18022;45.492;11.548;2022-09-01T04:51:16;3.40;;;2.80;;
31390;SDS011;18022;45.492;11.548;2022-09-01T04:53:44;5.20;;;3.00;;
31390;SDS011;18022;45.492;11.548;2022-09-01T04:56:16;5.22;;;2.88;;
31390;SDS011;18022;45.492;11.548;2022-09-01T04:58:45;3.13;;;2.75;;
31390;SDS011;18022;45.492;11.548;2022-09-01T05:01:12;3.80;;;2.80;;
31390;SDS011;18022;45.492;11.548;2022-09-01T05:03:44;4.05;;;2.42;;
31390;SDS011;18022;45.492;11.548;2022-09-01T05:06:14;5.85;;;2.80;;
31390;SDS011;18022;45.492;11.548;2022-09-01T05:08:41;4.05;;;2.92;;
31390;SDS011;18022;45.492;11.548;2022-09-01T05:11:09;4.25;;;3.05;;
31390;SDS011;18022;45.492;11.548;2022-09-01T05:13:36;3.08;;;2.72;;
31390;SDS011;18022;45.492;11.548;2022-09-01T05:16:08;4.32;;;3.00;;
31390;SDS011;18022;45.492;11.548;2022-09-01T05:18:39;3.38;;;2.63;;
31390;SDS011;18022;45.492;11.548;2022-09-01T05:21:08;7.85;;;5.30;;
31390;SDS011;18022;45.492;11.548;2022-09-01T05:23:35;4.15;;;3.08;;
31390;SDS011;18022;45.492;11.548;2022-09-01T05:26:20;2.90;;;2.70;;
31390;SDS011;18022;45.492;11.548;2022-09-01T05:28:50;3.10;;;2.67;;
31390;SDS011;18022;45.492;11.548;2022-09-01T05:31:24;3.35;;;2.88;;
31390;SDS011;18022;45.492;11.548;2022-09-01T05:33:52;3.00;;;2.70;;
31390;SDS011;18022;45.492;11.548;2022-09-01T05:36:20;3.00;;;2.67;;
31390;SDS011;18022;45.492;11.548;2022-09-01T05:38:47;4.30;;;2.88;;
31390;SDS011;18022;45.492;11.548;2022-09-01T05:41:16;3.55;;;2.50;;
31390;SDS011;18022;45.492;11.548;2022-09-01T05:43:45;4.88;;;3.00;;
31390;SDS011;18022;45.492;11.548;2022-09-01T05:46:14;5.35;;;3.08;;
31390;SDS011;18022;45.492;11.548;2022-09-01T05:48:46;5.20;;;3.90;;
31390;SDS011;18022;45.492;11.548;2022-09-01T05:51:13;5.60;;;3.22;;
31390;SDS011;18022;45.492;11.548;2022-09-01T05:53:44;4.57;;;2.92;;
31390;SDS011;18022;45.492;11.548;2022-09-01T05:56:11;6.03;;;3.00;;
31390;SDS011;18022;45.492;11.548;2022-09-01T05:58:39;3.75;;;2.85;;
31390;SDS011;18022;45.492;11.548;2022-09-01T06:01:07;4.53;;;2.97;;
31390;SDS011;18022;45.492;11.548;2022-09-01T06:03:35;3.10;;;2.90;;
31390;SDS011;18022;45.492;11.548;2022-09-01T06:06:04;3.85;;;2.83;;
31390;SDS011;18022;45.492;11.548;2022-09-01T06:08:36;2.83;;;2.60;;
31390;SDS011;18022;45.492;11.548;2022-09-01T06:11:03;5.60;;;2.80;;
31390;SDS011;18022;45.492;11.548;2022-09-01T06:13:37;5.20;;;2.60;;
31390;SDS011;18022;45.492;11.548;2022-09-01T06:18:29;3.30;;;2.03;;
31390;SDS011;18022;45.492;11.548;2022-09-01T06:20:58;4.20;;;2.40;;
31390;SDS011;18022;45.492;11.548;2022-09-01T06:23:28;2.33;;;1.95;;
31390;SDS011;18022;45.492;11.548;2022-09-01T06:25:53;3.67;;;1.50;;
31390;SDS011;18022;45.492;11.548;2022-09-01T06:28:19;5.05;;;1.60;;
31390;SDS011;18022;45.492;11.548;2022-09-01T06:30:48;3.78;;;1.30;;
31390;SDS011;18022;45.492;11.548;2022-09-01T06:33:15;1.35;;;1.23;;
31390;SDS011;18022;45.492;11.548;2022-09-01T06:35:41;5.70;;;1.38;;
31390;SDS011;18022;45.492;11.548;2022-09-01T06:38:11;5.57;;;1.33;;
31390;SDS011;18022;45.492;11.548;2022-09-01T06:40:38;2.80;;;1.55;;
31390;SDS011;18022;45.492;11.548;2022-09-01T06:43:06;3.40;;;1.20;;
31390;SDS011;18022;45.492;11.548;2022-09-01T06:45:38;1.63;;;1.20;;
31390;SDS011;18022;45.492;11.548;2022-09-01T06:48:06;1.83;;;0.98;;
31390;SDS011;18022;45.492;11.548;2022-09-01T06:50:32;2.45;;;0.90;;
31390;SDS011;18022;45.492;11.548;2022-09-01T06:52:58;2.78;;;1.10;;
31390;SDS011;18022;45.492;11.548;2022-09-01T06:55:40;1.10;;;1.00;;
31390;SDS011;18022;45.492;11.548;2022-09-01T06:58:08;1.05;;;0.90;;
31390;SDS011;18022;45.492;11.548;2022-09-01T07:00:39;5.28;;;1.30;;
31390;SDS011;18022;45.492;11.548;2022-09-01T07:03:07;9.43;;;1.23;;
31390;SDS011;18022;45.492;11.548;2022-09-01T07:05:38;5.40;;;1.10;;
31390;SDS011;18022;45.492;11.548;2022-09-01T07:08:05;1.27;;;0.85;;
31390;SDS011;18022;45.492;11.548;2022-09-01T07:10:39;1.75;;;1.10;;
31390;SDS011;18022;45.492;11.548;2022-09-01T07:13:09;6.53;;;1.02;;
31390;SDS011;18022;45.492;11.548;2022-09-01T07:15:44;4.00;;;0.90;;
31390;SDS011;18022;45.492;11.548;2022-09-01T07:18:14;0.70;;;0.68;;
31390;SDS011;18022;45.492;11.548;2022-09-01T07:20:45;1.52;;;0.80;;
31390;SDS011;18022;45.492;11.548;2022-09-01T07:23:13;2.30;;;1.00;;
31390;SDS011;18022;45.492;11.548;2022-09-01T07:25:41;2.13;;;0.80;;
31390;SDS011;18022;45.492;11.548;2022-09-01T07:28:10;1.42;;;0.98;;
31390;SDS011;18022;45.492;11.548;2022-09-01T07:30:46;1.52;;;0.75;;
31390;SDS011;18022;45.492;11.548;2022-09-01T07:33:14;1.00;;;0.90;;
31390;SDS011;18022;45.492;11.548;2022-09-01T07:35:47;4.68;;;0.63;;
31390;SDS011;18022;45.492;11.548;2022-09-01T07:38:14;0.60;;;0.50;;
31390;SDS011;18022;45.492;11.548;2022-09-01T07:40:43;0.65;;;0.65;;
31390;SDS011;18022;45.492;11.548;2022-09-01T07:43:43;1.40;;;0.70;;
31390;SDS011;18022;45.492;11.548;2022-09-01T07:46:03;1.77;;;0.73;;
31390;SDS011;18022;45.492;11.548;2022-09-01T07:48:30;1.70;;;0.70;;
31390;SDS011;18022;45.492;11.548;2022-09-01T07:50:56;3.53;;;0.93;;
31390;SDS011;18022;45.492;11.548;2022-09-01T07:55:51;1.60;;;0.55;;
31390;SDS011;18022;45.492;11.548;2022-09-01T07:58:19;1.83;;;0.50;;
31390;SDS011;18022;45.492;11.548;2022-09-01T08:00:47;1.80;;;0.60;;
31390;SDS011;18022;45.492;11.548;2022-09-01T08:03:14;2.83;;;0.60;;
31390;SDS011;18022;45.492;11.548;2022-09-01T08:05:44;2.38;;;0.63;;
31390;SDS011;18022;45.492;11.548;2022-09-01T08:08:11;0.65;;;0.60;;
31390;SDS011;18022;45.492;11.548;2022-09-01T08:10:38;1.08;;;0.60;;
31390;SDS011;18022;45.492;11.548;2022-09-01T08:13:05;3.03;;;0.85;;
31390;SDS011;18022;45.492;11.548;2022-09-01T08:15:32;0.60;;;0.50;;
31390;SDS011;18022;45.492;11.548;2022-09-01T08:17:57;0.77;;;0.52;;
31390;SDS011;18022;45.492;11.548;2022-09-01T08:20:23;1.25;;;0.68;;
31390;SDS011;18022;45.492;11.548;2022-09-01T08:22:49;2.40;;;0.65;;
31390;SDS011;18022;45.492;11.548;2022-09-01T08:25:14;4.88;;;0.50;;
31390;SDS011;18022;45.492;11.548;2022-09-01T08:27:40;0.75;;;0.50;;
31390;SDS011;18022;45.492;11.548;2022-09-01T08:30:07;1.23;;;0.43;;
31390;SDS011;18022;45.492;11.548;2022-09-01T08:32:35;0.60;;;0.50;;
31390;SDS011;18022;45.492;11.548;2022-09-01T08:35:01;0.55;;;0.50;;
31390;SDS011;18022;45.492;11.548;2022-09-01T08:37:29;0.65;;;0.60;;
31390;SDS011;18022;45.492;11.548;2022-09-01T08:39:55;1.55;;;0.50;;
31390;SDS011;18022;45.492;11.548;2022-09-01T08:42:30;0.82;;;0.50;;
31390;SDS011;18022;45.492;11.548;2022-09-01T08:47:51;3.28;;;0.50;;
31390;SDS011;18022;45.492;11.548;2022-09-01T08:50:19;0.60;;;0.50;;
31390;SDS011;18022;45.492;11.548;2022-09-01T08:53:32;0.47;;;0.40;;
31390;SDS011;18022;45.492;11.548;2022-09-01T08:55:38;0.70;;;0.40;;
31390;SDS011;18022;45.492;11.548;2022-09-01T08:58:07;0.60;;;0.43;;
31390;SDS011;18022;45.492;11.548;2022-09-01T09:00:41;0.98;;;0.60;;
31390;SDS011;18022;45.492;11.548;2022-09-01T09:06:25;0.47;;;0.40;;
31390;SDS011;18022;45.492;11.548;2022-09-01T09:09:01;1.17;;;0.40;;
31390;SDS011;18022;45.492;11.548;2022-09-01T09:16:56;0.45;;;0.38;;
31390;SDS011;18022;45.492;11.548;2022-09-01T09:19:23;1.15;;;0.43;;
31390;SDS011;18022;45.492;11.548;2022-09-01T09:22:03;4.88;;;0.40;;
31390;SDS011;18022;45.492;11.548;2022-09-01T09:27:17;0.98;;;0.40;;
31390;SDS011;18022;45.492;11.548;2022-09-01T09:29:52;1.25;;;0.70;;
31390;SDS011;18022;45.492;11.548;2022-09-01T09:32:23;1.85;;;0.60;;
31390;SDS011;18022;45.492;11.548;2022-09-01T09:40:57;4.68;;;0.57;;
31390;SDS011;18022;45.492;11.548;2022-09-01T09:43:32;2.35;;;0.40;;
31390;SDS011;18022;45.492;11.548;2022-09-01T09:49:34;0.55;;;0.40;;
31390;SDS011;18022;45.492;11.548;2022-09-01T09:51:53;1.10;;;0.45;;
31390;SDS011;18022;45.492;11.548;2022-09-01T09:54:24;0.40;;;0.40;;
31390;SDS011;18022;45.492;11.548;2022-09-01T09:59:55;0.30;;;0.30;;
31390;SDS011;18022;45.492;11.548;2022-09-01T10:04:51;0.68;;;0.43;;
31390;SDS011;18022;45.492;11.548;2022-09-01T10:07:36;0.68;;;0.40;;
31390;SDS011;18022;45.492;11.548;2022-09-01T10:10:44;1.48;;;0.35;;
31390;SDS011;18022;45.492;11.548;2022-09-01T10:12:53;1.95;;;0.50;;
31390;SDS011;18022;45.492;11.548;2022-09-01T10:15:21;1.05;;;0.45;;
31390;SDS011;18022;45.492;11.548;2022-09-01T10:17:50;1.85;;;0.50;;
31390;SDS011;18022;45.492;11.548;2022-09-01T10:20:20;0.55;;;0.50;;
31390;SDS011;18022;45.492;11.548;2022-09-01T10:22:48;0.50;;;0.50;;
31390;SDS011;18022;45.492;11.548;2022-09-01T10:25:16;0.90;;;0.30;;
31390;SDS011;18022;45.492;11.548;2022-09-01T10:27:57;1.08;;;0.60;;
31390;SDS011;18022;45.492;11.548;2022-09-01T10:30:32;1.30;;;0.40;;
31390;SDS011;18022;45.492;11.548;2022-09-01T10:33:01;1.85;;;0.35;;
31390;SDS011;18022;45.492;11.548;2022-09-01T10:35:33;0.43;;;0.40;;
31390;SDS011;18022;45.492;11.548;2022-09-01T10:38:04;0.63;;;0.63;;
31390;SDS011;18022;45.492;11.548;2022-09-01T10:43:21;2.17;;;0.50;;
31390;SDS011;18022;45.492;11.548;2022-09-01T10:45:46;0.70;;;0.52;;
31390;SDS011;18022;45.492;11.548;2022-09-01T10:50:51;0.73;;;0.52;;
31390;SDS011;18022;45.492;11.548;2022-09-01T11:01:14;1.10;;;0.50;;
31390;SDS011;18022;45.492;11.548;2022-09-01T11:03:55;0.93;;;0.80;;
31390;SDS011;18022;45.492;11.548;2022-09-01T11:09:05;0.65;;;0.50;;
31390;SDS011;18022;45.492;11.548;2022-09-01T11:12:02;1.10;;;0.43;;
31390;SDS011;18022;45.492;11.548;2022-09-01T11:14:31;0.40;;;0.40;;
31390;SDS011;18022;45.492;11.548;2022-09-01T11:17:15;1.00;;;0.30;;
31390;SDS011;18022;45.492;11.548;2022-09-01T11:30:19;0.50;;;0.30;;
31390;SDS011;18022;45.492;11.548;2022-09-01T11:32:48;0.40;;;0.30;;
31390;SDS011;18022;45.492;11.548;2022-09-01T11:35:21;0.73;;;0.22;;
31390;SDS011;18022;45.492;11.548;2022-09-01T11:37:50;0.55;;;0.30;;
31390;SDS011;18022;45.492;11.548;2022-09-01T11:40:23;1.35;;;0.30;;
31390;SDS011;18022;45.492;11.548;2022-09-01T11:42:54;0.25;;;0.25;;
31390;SDS011;18022;45.492;11.548;2022-09-01T11:45:25;0.68;;;0.40;;
31390;SDS011;18022;45.492;11.548;2022-09-01T11:48:15;0.28;;;0.22;;
31390;SDS011;18022;45.492;11.548;2022-09-01T11:50:41;1.27;;;0.20;;
31390;SDS011;18022;45.492;11.548;2022-09-01T11:53:14;0.45;;;0.30;;
31390;SDS011;18022;45.492;11.548;2022-09-01T11:55:47;1.58;;;0.20;;
31390;SDS011;18022;45.492;11.548;2022-09-01T12:00:55;1.23;;;0.40;;
31390;SDS011;18022;45.492;11.548;2022-09-01T12:03:28;0.85;;;0.30;;
31390;SDS011;18022;45.492;11.548;2022-09-01T12:05:55;0.88;;;0.47;;
31390;SDS011;18022;45.492;11.548;2022-09-01T12:08:27;1.08;;;0.20;;
31390;SDS011;18022;45.492;11.548;2022-09-01T12:11:04;1.92;;;0.40;;
31390;SDS011;18022;45.492;11.548;2022-09-01T12:13:30;2.35;;;0.30;;
31390;SDS011;18022;45.492;11.548;2022-09-01T12:16:00;2.47;;;0.40;;
31390;SDS011;18022;45.492;11.548;2022-09-01T12:18:33;0.40;;;0.38;;
31390;SDS011;18022;45.492;11.548;2022-09-01T12:21:05;1.35;;;0.30;;
31390;SDS011;18022;45.492;11.548;2022-09-01T12:23:39;1.85;;;0.40;;
31390;SDS011;18022;45.492;11.548;2022-09-01T12:28:35;4.13;;;0.63;;
31390;SDS011;18022;45.492;11.548;2022-09-01T12:31:05;1.17;;;0.38;;
31390;SDS011;18022;45.492;11.548;2022-09-01T12:33:37;1.58;;;0.30;;
31390;SDS011;18022;45.492;11.548;2022-09-01T12:36:14;1.27;;;0.50;;
31390;SDS011;18022;45.492;11.548;2022-09-01T12:38:40;3.60;;;0.52;;
31390;SDS011;18022;45.492;11.548;2022-09-01T12:41:22;2.83;;;0.50;;
31390;SDS011;18022;45.492;11.548;2022-09-01T12:43:48;0.82;;;0.47;;
31390;SDS011;18022;45.492;11.548;2022-09-01T12:46:38;2.92;;;0.82;;
31390;SDS011;18022;45.492;11.548;2022-09-01T12:49:19;0.80;;;0.50;;
31390;SDS011;18022;45.492;11.548;2022-09-01T12:51:49;1.15;;;0.77;;
31390;SDS011;18022;45.492;11.548;2022-09-01T12:54:33;0.40;;;0.40;;
31390;SDS011;18022;45.492;11.548;2022-09-01T12:56:59;3.28;;;0.70;;
31390;SDS011;18022;45.492;11.548;2022-09-01T12:59:25;3.25;;;0.50;;
31390;SDS011;18022;45.492;11.548;2022-09-01T13:01:51;1.25;;;0.50;;
31390;SDS011;18022;45.492;11.548;2022-09-01T13:06:46;6.47;;;0.70;;
31390;SDS011;18022;45.492;11.548;2022-09-01T13:09:13;4.70;;;0.73;;
31390;SDS011;18022;45.492;11.548;2022-09-01T13:11:39;5.85;;;0.88;;
31390;SDS011;18022;45.492;11.548;2022-09-01T13:14:06;4.10;;;0.43;;
31390;SDS011;18022;45.492;11.548;2022-09-01T13:16:32;1.80;;;0.50;;
31390;SDS011;18022;45.492;11.548;2022-09-01T13:18:59;6.57;;;0.70;;
31390;SDS011;18022;45.492;11.548;2022-09-01T13:21:25;3.97;;;0.90;;
31390;SDS011;18022;45.492;11.548;2022-09-01T13:23:51;3.72;;;0.70;;
31390;SDS011;18022;45.492;11.548;2022-09-01T13:26:17;4.07;;;0.60;;
31390;SDS011;18022;45.492;11.548;2022-09-01T13:28:43;3.63;;;0.80;;
31390;SDS011;18022;45.492;11.548;2022-09-01T13:31:09;6.30;;;1.38;;
31390;SDS011;18022;45.492;11.548;2022-09-01T13:33:36;5.83;;;0.87;;
31390;SDS011;18022;45.492;11.548;2022-09-01T13:36:02;2.30;;;0.68;;
31390;SDS011;18022;45.492;11.548;2022-09-01T13:38:28;2.58;;;0.65;;
31390;SDS011;18022;45.492;11.548;2022-09-01T13:40:56;2.35;;;0.80;;
31390;SDS011;18022;45.492;11.548;2022-09-01T13:43:23;7.75;;;0.85;;
31390;SDS011;18022;45.492;11.548;2022-09-01T13:45:51;6.35;;;1.40;;
31390;SDS011;18022;45.492;11.548;2022-09-01T13:48:17;4.37;;;0.60;;
31390;SDS011;18022;45.492;11.548;2022-09-01T13:50:48;0.95;;;0.60;;
31390;SDS011;18022;45.492;11.548;2022-09-01T13:53:16;2.78;;;0.70;;
31390;SDS011;18022;45.492;11.548;2022-09-01T13:55:41;6.50;;;0.80;;
31390;SDS011;18022;45.492;11.548;2022-09-01T13:58:07;3.92;;;0.75;;
31390;SDS011;18022;45.492;11.548;2022-09-01T14:00:35;3.40;;;0.73;;
31390;SDS011;18022;45.492;11.548;2022-09-01T14:03:11;1.65;;;0.60;;
31390;SDS011;18022;45.492;11.548;2022-09-01T14:05:40;3.03;;;0.80;;
31390;SDS011;18022;45.492;11.548;2022-09-01T14:08:07;3.92;;;0.65;;
31390;SDS011;18022;45.492;11.548;2022-09-01T14:10:39;8.73;;;1.05;;
31390;SDS011;18022;45.492;11.548;2022-09-01T14:13:07;3.53;;;0.80;;
31390;SDS011;18022;45.492;11.548;2022-09-01T14:15:34;5.28;;;1.13;;
31390;SDS011;18022;45.492;11.548;2022-09-01T14:18:00;4.65;;;1.00;;
31390;SDS011;18022;45.492;11.548;2022-09-01T14:20:28;6.35;;;0.85;;
31390;SDS011;18022;45.492;11.548;2022-09-01T14:22:55;4.13;;;0.80;;
31390;SDS011;18022;45.492;11.548;2022-09-01T14:25:22;2.90;;;0.70;;
31390;SDS011;18022;45.492;11.548;2022-09-01T14:27:48;7.03;;;0.90;;
31390;SDS011;18022;45.492;11.548;2022-09-01T14:30:19;1.10;;;0.70;;
31390;SDS011;18022;45.492;11.548;2022-09-01T14:32:46;1.98;;;0.75;;
31390;SDS011;18022;45.492;11.548;2022-09-01T14:35:13;1.98;;;0.90;;
31390;SDS011;18022;45.492;11.548;2022-09-01T14:37:39;6.23;;;0.80;;
31390;SDS011;18022;45.492;11.548;2022-09-01T14:40:06;1.90;;;1.05;;
31390;SDS011;18022;45.492;11.548;2022-09-01T14:42:32;2.85;;;0.85;;
31390;SDS011;18022;45.492;11.548;2022-09-01T14:44:59;2.45;;;0.85;;
31390;SDS011;18022;45.492;11.548;2022-09-01T14:47:26;3.60;;;1.50;;
31390;SDS011;18022;45.492;11.548;2022-09-01T14:49:51;1.38;;;0.90;;
31390;SDS011;18022;45.492;11.548;2022-09-01T14:52:17;5.22;;;1.00;;
31390;SDS011;18022;45.492;11.548;2022-09-01T14:57:10;5.05;;;0.90;;
31390;SDS011;18022;45.492;11.548;2022-09-01T14:59:38;2.70;;;0.80;;
31390;SDS011;18022;45.492;11.548;2022-09-01T15:02:04;2.33;;;1.00;;
31390;SDS011;18022;45.492;11.548;2022-09-01T15:04:29;2.25;;;1.00;;
31390;SDS011;18022;45.492;11.548;2022-09-01T15:06:56;1.02;;;0.73;;
31390;SDS011;18022;45.492;11.548;2022-09-01T15:09:22;1.52;;;1.17;;
31390;SDS011;18022;45.492;11.548;2022-09-01T15:11:47;6.53;;;1.00;;
31390;SDS011;18022;45.492;11.548;2022-09-01T15:14:13;8.52;;;1.08;;
31390;SDS011;18022;45.492;11.548;2022-09-01T15:16:39;4.03;;;0.85;;
31390;SDS011;18022;45.492;11.548;2022-09-01T15:19:09;5.03;;;1.20;;
31390;SDS011;18022;45.492;11.548;2022-09-01T15:21:37;6.13;;;1.17;;
31390;SDS011;18022;45.492;11.548;2022-09-01T15:24:04;1.13;;;0.85;;
31390;SDS011;18022;45.492;11.548;2022-09-01T15:26:31;3.45;;;1.00;;
31390;SDS011;18022;45.492;11.548;2022-09-01T15:28:58;2.30;;;1.05;;
31390;SDS011;18022;45.492;11.548;2022-09-01T15:31:26;5.15;;;0.88;;
31390;SDS011;18022;45.492;11.548;2022-09-01T15:33:55;5.15;;;1.13;;
31390;SDS011;18022;45.492;11.548;2022-09-01T15:36:22;7.40;;;1.10;;
31390;SDS011;18022;45.492;11.548;2022-09-01T15:38:49;1.83;;;1.10;;
31390;SDS011;18022;45.492;11.548;2022-09-01T15:43:52;3.92;;;1.00;;
31390;SDS011;18022;45.492;11.548;2022-09-01T15:46:19;2.83;;;0.90;;
31390;SDS011;18022;45.492;11.548;2022-09-01T15:48:45;1.95;;;0.90;;
31390;SDS011;18022;45.492;11.548;2022-09-01T15:53:47;3.17;;;0.93;;
31390;SDS011;18022;45.492;11.548;2022-09-01T15:56:13;2.65;;;0.90;;
31390;SDS011;18022;45.492;11.548;2022-09-01T15:58:42;1.27;;;0.80;;
31390;SDS011;18022;45.492;11.548;2022-09-01T16:01:08;0.95;;;0.70;;
31390;SDS011;18022;45.492;11.548;2022-09-01T16:03:34;1.70;;;0.80;;
31390;SDS011;18022;45.492;11.548;2022-09-01T16:05:59;4.63;;;0.95;;
31390;SDS011;18022;45.492;11.548;2022-09-01T16:08:25;2.35;;;0.77;;
31390;SDS011;18022;45.492;11.548;2022-09-01T16:10:52;6.50;;;0.95;;
31390;SDS011;18022;45.492;11.548;2022-09-01T16:13:18;1.52;;;1.00;;
31390;SDS011;18022;45.492;11.548;2022-09-01T16:15:58;3.63;;;1.10;;